createdAt,value
2019-05-21T00:00:00.658Z,14.60
2019-05-21T00:01:00.663Z,14.10
2019-05-21T00:02:00.637Z,14.00
2019-05-21T00:03:00.623Z,14.50
2019-05-21T00:04:00.629Z,14.50
2019-05-21T00:05:00.615Z,14.90
2019-05-21T00:06:00.596Z,15.60
2019-05-21T00:07:00.584Z,14.40
2019-05-21T00:08:00.570Z,14.40
2019-05-21T00:09:00.573Z,13.80
2019-05-21T00:10:00.543Z,13.60
2019-05-21T00:11:00.541Z,13.80
2019-05-21T00:12:00.521Z,13.30
2019-05-21T00:13:00.513Z,13.40
2019-05-21T00:14:00.525Z,13.50
2019-05-21T00:15:00.493Z,13.80
2019-05-21T00:16:00.495Z,13.70
2019-05-21T00:17:00.469Z,13.50
2019-05-21T00:18:00.450Z,14.50
2019-05-21T00:19:00.444Z,14.40
2019-05-21T00:20:00.456Z,13.60
2019-05-21T00:21:00.424Z,13.80
2019-05-21T00:22:00.419Z,12.90
2019-05-21T00:23:00.392Z,13.20
2019-05-21T00:24:00.388Z,13.20
2019-05-21T00:25:00.412Z,13.60
2019-05-21T00:26:00.358Z,13.40
2019-05-21T00:27:00.346Z,12.50
2019-05-21T00:28:00.339Z,12.70
2019-05-21T00:29:00.329Z,12.90
2019-05-21T00:30:00.338Z,12.70
2019-05-21T00:31:00.320Z,12.90
2019-05-21T00:32:00.304Z,13.50
2019-05-21T00:33:00.281Z,13.50
2019-05-21T00:34:00.271Z,12.80
2019-05-21T00:35:00.308Z,13.20
2019-05-21T00:36:00.241Z,13.40
2019-05-21T00:37:00.324Z,13.20
2019-05-21T00:38:00.226Z,13.40
2019-05-21T00:39:00.209Z,12.90
2019-05-21T00:40:00.219Z,12.40
2019-05-21T00:41:00.189Z,13.40
2019-05-21T00:42:00.170Z,12.30
2019-05-21T00:43:00.175Z,12.50
2019-05-21T00:44:00.154Z,12.30
2019-05-21T00:45:00.161Z,11.20
2019-05-21T00:46:00.132Z,10.60
2019-05-21T00:47:00.117Z,10.60
2019-05-21T00:48:00.110Z,10.70
2019-05-21T00:49:00.091Z,10.60
2019-05-21T00:50:00.141Z,10.70
2019-05-21T00:51:00.068Z,10.20
2019-05-21T00:52:08.139Z,11.00
2019-05-21T00:53:01.041Z,10.50
2019-05-21T00:54:00.033Z,9.90
2019-05-21T00:55:00.045Z,10.00
2019-05-21T00:56:00.044Z,10.70
2019-05-21T00:57:00.006Z,10.10
2019-05-21T00:57:59.986Z,11.70
2019-05-21T00:58:59.974Z,10.50
2019-05-21T00:59:59.964Z,10.80
2019-05-21T01:00:59.974Z,11.00
2019-05-21T01:01:59.948Z,11.50
2019-05-21T01:02:59.940Z,11.90
2019-05-21T01:03:59.916Z,11.80
2019-05-21T01:05:01.367Z,13.20
2019-05-21T01:05:59.899Z,12.80
2019-05-21T01:06:59.892Z,12.40
2019-05-21T01:07:59.876Z,12.80
2019-05-21T01:08:59.857Z,13.30
2019-05-21T01:09:59.883Z,13.20
2019-05-21T01:10:59.836Z,13.10
2019-05-21T01:11:59.827Z,14.10
2019-05-21T01:12:59.821Z,14.30
2019-05-21T01:13:59.804Z,14.90
2019-05-21T01:14:59.815Z,15.60
2019-05-21T01:15:59.785Z,15.50
2019-05-21T01:16:59.765Z,15.20
2019-05-21T01:17:59.755Z,16.60
2019-05-21T01:18:59.751Z,15.80
2019-05-21T01:19:59.758Z,16.20
2019-05-21T01:20:59.719Z,17.50
2019-05-21T01:21:59.722Z,17.40
2019-05-21T01:22:59.700Z,17.50
2019-05-21T01:23:59.684Z,17.30
2019-05-21T01:24:59.678Z,18.30
2019-05-21T01:25:59.693Z,18.10
2019-05-21T01:26:59.658Z,18.40
2019-05-21T01:27:59.643Z,18.10
2019-05-21T01:28:59.626Z,17.80
2019-05-21T01:29:59.613Z,18.80
2019-05-21T01:30:59.604Z,17.40
2019-05-21T01:31:59.616Z,17.70
2019-05-21T01:32:59.588Z,18.00
2019-05-21T01:33:59.572Z,18.10
2019-05-21T01:34:59.565Z,17.70
2019-05-21T01:35:59.544Z,17.80
2019-05-21T01:36:59.577Z,17.30
2019-05-21T01:37:59.522Z,17.10
2019-05-21T01:38:59.517Z,18.20
2019-05-21T01:39:59.501Z,18.40
2019-05-21T01:40:59.496Z,18.50
2019-05-21T01:41:59.514Z,18.10
2019-05-21T01:42:59.467Z,18.80
2019-05-21T01:43:59.453Z,18.00
2019-05-21T01:44:59.445Z,18.00
2019-05-21T01:45:59.432Z,18.50
2019-05-21T01:46:59.425Z,18.60
2019-05-21T01:47:59.434Z,18.80
2019-05-21T01:48:59.398Z,18.10
2019-05-21T01:49:59.392Z,19.00
2019-05-21T01:50:59.379Z,18.50
2019-05-21T01:51:59.369Z,18.10
2019-05-21T01:52:59.350Z,17.80
2019-05-21T01:53:59.363Z,17.00
2019-05-21T01:54:59.332Z,16.50
2019-05-21T01:55:59.320Z,16.80
2019-05-21T01:56:59.305Z,16.00
2019-05-21T01:57:59.309Z,17.10
2019-05-21T01:58:59.300Z,15.90
2019-05-21T01:59:59.270Z,16.00
2019-05-21T02:00:59.259Z,16.00
2019-05-21T02:01:59.263Z,16.40
2019-05-21T02:02:59.237Z,16.10
2019-05-21T02:03:59.255Z,16.80
2019-05-21T02:04:59.219Z,16.60
2019-05-21T02:05:59.200Z,17.10
2019-05-21T02:06:59.193Z,16.60
2019-05-21T02:07:59.180Z,17.90
2019-05-21T02:08:59.191Z,17.60
2019-05-21T02:09:59.169Z,17.40
2019-05-21T02:10:59.152Z,17.30
2019-05-21T02:11:59.131Z,18.30
2019-05-21T02:12:59.121Z,19.00
2019-05-21T02:13:59.133Z,19.30
2019-05-21T02:14:59.196Z,18.60
2019-05-21T02:15:59.086Z,18.70
2019-05-21T02:16:59.083Z,19.40
2019-05-21T02:17:59.063Z,18.50
2019-05-21T02:18:59.083Z,20.20
2019-05-21T02:19:59.041Z,19.30
2019-05-21T02:20:59.034Z,18.40
2019-05-21T02:21:59.017Z,19.30
2019-05-21T02:22:59.032Z,19.00
2019-05-21T02:23:58.995Z,19.40
2019-05-21T02:24:59.005Z,19.70
2019-05-21T02:25:58.985Z,19.70
2019-05-21T02:26:58.965Z,19.30
2019-05-21T02:27:58.966Z,20.00
2019-05-21T02:28:58.942Z,20.60
2019-05-21T02:29:58.926Z,20.50
2019-05-21T02:30:58.956Z,20.10
2019-05-21T02:31:58.914Z,20.00
2019-05-21T02:32:58.909Z,20.60
2019-05-21T02:33:58.892Z,19.60
2019-05-21T02:34:58.885Z,20.00
2019-05-21T02:35:58.882Z,19.70
2019-05-21T02:36:58.847Z,20.90
2019-05-21T02:37:58.836Z,20.10
2019-05-21T02:38:58.816Z,20.30
2019-05-21T02:39:58.811Z,20.00
2019-05-21T02:40:58.820Z,19.70
2019-05-21T02:41:58.783Z,20.60
2019-05-21T02:42:58.774Z,20.40
2019-05-21T02:43:58.767Z,20.60
2019-05-21T02:44:58.755Z,20.20
2019-05-21T02:45:58.777Z,21.70
2019-05-21T02:46:58.729Z,21.40
2019-05-21T02:47:58.714Z,20.40
2019-05-21T02:48:58.702Z,22.10
2019-05-21T02:49:58.697Z,20.00
2019-05-21T02:50:58.686Z,20.50
2019-05-21T02:51:58.732Z,20.40
2019-05-21T02:52:58.681Z,20.80
2019-05-21T02:53:58.644Z,20.20
2019-05-21T02:54:58.637Z,21.10
2019-05-21T02:55:58.635Z,19.50
2019-05-21T02:56:58.611Z,20.30
2019-05-21T02:57:58.621Z,21.10
2019-05-21T02:58:58.600Z,19.80
2019-05-21T02:59:58.587Z,20.60
2019-05-21T03:00:58.562Z,20.50
2019-05-21T03:01:58.554Z,20.60
2019-05-21T03:02:58.555Z,21.30
2019-05-21T03:03:58.525Z,21.20
2019-05-21T03:04:58.570Z,21.10
2019-05-21T03:06:13.340Z,20.50
2019-05-21T03:06:59.506Z,21.60
2019-05-21T03:07:58.531Z,20.70
2019-05-21T03:08:58.498Z,22.10
2019-05-21T03:09:58.464Z,21.10
2019-05-21T03:10:58.461Z,21.20
2019-05-21T03:11:58.442Z,21.70
2019-05-21T03:12:58.423Z,21.10
2019-05-21T03:13:58.445Z,21.80
2019-05-21T03:14:58.405Z,22.40
2019-05-21T03:15:58.406Z,22.10
2019-05-21T03:16:58.387Z,21.80
2019-05-21T03:17:58.383Z,22.20
2019-05-21T03:18:58.389Z,22.70
2019-05-21T03:19:58.352Z,22.60
2019-05-21T03:20:58.339Z,22.50
2019-05-21T03:21:58.329Z,24.20
2019-05-21T03:22:58.317Z,23.00
2019-05-21T03:23:58.316Z,22.70
2019-05-21T03:25:02.154Z,22.80
2019-05-21T03:25:58.279Z,22.70
2019-05-21T03:26:58.267Z,23.00
2019-05-21T03:27:58.250Z,23.40
2019-05-21T03:28:58.276Z,22.90
2019-05-21T03:29:58.269Z,22.50
2019-05-21T03:30:58.213Z,22.20
2019-05-21T03:31:58.204Z,22.50
2019-05-21T03:32:58.200Z,22.00
2019-05-21T03:33:58.205Z,22.40
2019-05-21T03:34:58.194Z,22.00
2019-05-21T03:35:58.160Z,21.50
2019-05-21T03:36:58.141Z,22.20
2019-05-21T03:37:58.132Z,21.60
2019-05-21T03:38:58.119Z,22.10
2019-05-21T03:39:58.148Z,22.70
2019-05-21T03:40:58.095Z,21.60
2019-05-21T03:41:58.090Z,22.10
2019-05-21T03:42:58.069Z,21.40
2019-05-21T03:43:58.064Z,21.30
2019-05-21T03:45:00.496Z,22.20
2019-05-21T03:45:58.058Z,22.00
2019-05-21T03:46:58.029Z,20.90
2019-05-21T03:47:58.014Z,20.90
2019-05-21T03:48:57.999Z,20.20
2019-05-21T03:49:57.997Z,21.30
2019-05-21T03:50:57.999Z,20.60
2019-05-21T03:51:57.968Z,21.70
2019-05-21T03:52:58.047Z,20.60
2019-05-21T03:53:57.940Z,20.30
2019-05-21T03:55:02.671Z,21.10
2019-05-21T03:55:58.962Z,20.30
2019-05-21T03:56:57.910Z,21.30
2019-05-21T03:57:57.894Z,20.20
2019-05-21T03:58:57.902Z,20.70
2019-05-21T03:59:57.869Z,20.40
2019-05-21T04:00:57.855Z,20.50
2019-05-21T04:01:57.867Z,20.70
2019-05-21T04:02:57.840Z,20.30
2019-05-21T04:03:57.821Z,20.40
2019-05-21T04:04:57.823Z,20.80
2019-05-21T04:05:57.810Z,20.00
2019-05-21T04:06:57.817Z,19.90
2019-05-21T04:07:57.787Z,20.00
2019-05-21T04:08:57.765Z,20.40
2019-05-21T04:09:57.767Z,20.30
2019-05-21T04:10:57.751Z,20.00
2019-05-21T04:11:57.754Z,20.10
2019-05-21T04:12:57.716Z,20.50
2019-05-21T04:13:57.707Z,20.80
2019-05-21T04:14:57.713Z,20.30
2019-05-21T04:15:57.747Z,19.80
2019-05-21T04:16:57.664Z,20.00
2019-05-21T04:17:57.676Z,19.40
2019-05-21T04:18:57.649Z,19.20
2019-05-21T04:19:57.630Z,19.40
2019-05-21T04:20:57.624Z,19.40
2019-05-21T04:21:57.637Z,19.30
2019-05-21T04:22:57.636Z,19.00
2019-05-21T04:23:57.587Z,19.70
2019-05-21T04:24:57.578Z,20.30
2019-05-21T04:25:57.565Z,19.70
2019-05-21T04:26:57.560Z,19.20
2019-05-21T04:27:57.595Z,18.90
2019-05-21T04:28:57.543Z,19.60
2019-05-21T04:29:57.522Z,18.50
2019-05-21T04:30:57.505Z,18.70
2019-05-21T04:31:57.490Z,19.80
2019-05-21T04:32:57.483Z,20.70
2019-05-21T04:33:57.505Z,20.50
2019-05-21T04:34:57.458Z,19.10
2019-05-21T04:35:57.460Z,19.90
2019-05-21T04:37:09.964Z,20.10
2019-05-21T04:37:58.418Z,19.60
2019-05-21T04:38:57.439Z,18.40
2019-05-21T04:39:57.399Z,18.10
2019-05-21T04:40:57.401Z,19.60
2019-05-21T04:41:57.374Z,18.20
2019-05-21T04:43:01.716Z,18.40
2019-05-21T04:43:57.361Z,18.30
2019-05-21T04:44:57.365Z,18.70
2019-05-21T04:45:57.337Z,18.80
2019-05-21T04:46:57.314Z,19.40
2019-05-21T04:47:57.310Z,18.40
2019-05-21T04:48:57.298Z,19.10
2019-05-21T04:49:57.307Z,18.80
2019-05-21T04:50:57.278Z,19.60
2019-05-21T04:51:57.262Z,19.50
2019-05-21T04:52:57.245Z,18.90
2019-05-21T04:53:57.244Z,19.40
2019-05-21T04:54:57.266Z,19.20
2019-05-21T04:55:57.212Z,18.60
2019-05-21T04:56:57.204Z,19.30
2019-05-21T04:57:57.192Z,20.00
2019-05-21T04:58:57.176Z,18.80
2019-05-21T04:59:57.168Z,19.00
2019-05-21T05:00:57.181Z,18.10
2019-05-21T05:01:57.150Z,18.80
2019-05-21T05:02:57.135Z,17.70
2019-05-21T05:03:57.120Z,17.40
2019-05-21T05:04:57.130Z,17.10
2019-05-21T05:05:57.103Z,18.00
2019-05-21T05:06:57.095Z,18.40
2019-05-21T05:07:57.196Z,17.70
2019-05-21T05:08:57.060Z,17.00
2019-05-21T05:09:57.075Z,17.40
2019-05-21T05:10:57.036Z,16.90
2019-05-21T05:11:57.029Z,17.10
2019-05-21T05:12:57.016Z,18.10
2019-05-21T05:13:57.009Z,18.00
2019-05-21T05:14:57.020Z,17.40
2019-05-21T05:15:56.988Z,17.30
2019-05-21T05:16:56.969Z,16.80
2019-05-21T05:17:56.961Z,16.60
2019-05-21T05:18:56.945Z,17.30
2019-05-21T05:19:56.955Z,17.60
2019-05-21T05:20:56.979Z,17.70
2019-05-21T05:21:56.909Z,17.30
2019-05-21T05:22:56.900Z,16.60
2019-05-21T05:23:56.887Z,16.40
2019-05-21T05:24:56.913Z,16.50
2019-05-21T05:25:56.873Z,17.20
2019-05-21T05:26:56.856Z,16.60
2019-05-21T05:27:56.855Z,17.60
2019-05-21T05:28:56.829Z,17.30
2019-05-21T05:29:56.840Z,16.90
2019-05-21T05:30:56.819Z,17.50
2019-05-21T05:31:56.797Z,17.10
2019-05-21T05:32:56.787Z,17.40
2019-05-21T05:33:56.779Z,17.10
2019-05-21T05:34:56.786Z,16.20
2019-05-21T05:35:56.749Z,17.50
2019-05-21T05:36:56.748Z,17.10
2019-05-21T05:37:56.744Z,17.20
2019-05-21T05:38:56.720Z,17.00
2019-05-21T05:39:56.731Z,16.90
2019-05-21T05:40:56.695Z,16.10
2019-05-21T05:41:56.681Z,16.80
2019-05-21T05:42:56.667Z,15.20
2019-05-21T05:43:56.661Z,16.80
2019-05-21T05:44:56.669Z,16.30
2019-05-21T05:45:56.639Z,15.70
2019-05-21T05:46:56.621Z,14.40
2019-05-21T05:47:56.612Z,15.60
2019-05-21T05:48:56.607Z,14.30
2019-05-21T05:49:56.613Z,14.20
2019-05-21T05:50:56.579Z,14.10
2019-05-21T05:51:56.577Z,15.00
2019-05-21T05:52:56.558Z,13.60
2019-05-21T05:53:56.545Z,14.00
2019-05-21T05:54:56.561Z,14.50
2019-05-21T05:55:56.521Z,14.90
2019-05-21T05:56:56.509Z,14.70
2019-05-21T05:57:56.503Z,15.50
2019-05-21T05:58:56.496Z,14.70
2019-05-21T05:59:56.473Z,15.00
2019-05-21T06:00:56.491Z,15.50
2019-05-21T06:01:56.466Z,15.90
2019-05-21T06:02:56.439Z,16.30
2019-05-21T06:03:56.432Z,15.60
2019-05-21T06:04:56.419Z,16.20
2019-05-21T06:05:56.432Z,16.10
2019-05-21T06:06:56.395Z,15.70
2019-05-21T06:07:59.767Z,15.30
2019-05-21T06:08:56.372Z,14.70
2019-05-21T06:09:56.361Z,14.30
2019-05-21T06:10:56.365Z,13.30
2019-05-21T06:11:56.357Z,14.10
2019-05-21T06:12:56.345Z,14.10
2019-05-21T06:13:56.321Z,14.00
2019-05-21T06:14:56.306Z,13.60
2019-05-21T06:15:56.298Z,13.80
2019-05-21T06:16:56.318Z,14.30
2019-05-21T06:17:56.267Z,14.20
2019-05-21T06:18:56.255Z,14.80
2019-05-21T06:19:56.252Z,14.80
2019-05-21T06:20:56.238Z,15.40
2019-05-21T06:21:56.246Z,15.30
2019-05-21T06:22:56.211Z,15.20
2019-05-21T06:23:56.197Z,14.30
2019-05-21T06:24:56.190Z,15.70
2019-05-21T06:25:56.180Z,16.20
2019-05-21T06:26:56.188Z,16.50
2019-05-21T06:27:56.149Z,16.20
2019-05-21T06:28:56.145Z,16.30
2019-05-21T06:29:56.127Z,16.30
2019-05-21T06:30:56.119Z,15.50
2019-05-21T06:31:56.113Z,15.60
2019-05-21T06:32:56.116Z,15.90
2019-05-21T06:33:56.091Z,15.00
2019-05-21T06:34:56.071Z,15.40
2019-05-21T06:35:56.119Z,16.10
2019-05-21T06:36:56.048Z,16.10
2019-05-21T06:37:56.054Z,16.40
2019-05-21T06:38:56.030Z,16.70
2019-05-21T06:39:56.033Z,15.60
2019-05-21T06:40:56.009Z,16.00
2019-05-21T06:41:55.988Z,13.90
2019-05-21T06:42:56.023Z,14.50
2019-05-21T06:43:55.969Z,13.20
2019-05-21T06:44:55.965Z,13.60
2019-05-21T06:45:55.950Z,14.90
2019-05-21T06:46:55.938Z,13.70
2019-05-21T06:47:55.944Z,14.50
2019-05-21T06:48:55.908Z,14.30
2019-05-21T06:49:55.899Z,15.20
2019-05-21T06:50:55.892Z,15.30
2019-05-21T06:51:55.876Z,14.60
2019-05-21T06:52:55.888Z,15.80
2019-05-21T06:53:55.856Z,13.90
2019-05-21T06:54:55.837Z,14.40
2019-05-21T06:55:55.834Z,14.80
2019-05-21T06:56:55.825Z,14.30
2019-05-21T06:57:55.841Z,14.90
2019-05-21T06:58:55.791Z,15.00
2019-05-21T06:59:55.785Z,14.60
2019-05-21T07:00:55.817Z,14.70
2019-05-21T07:01:55.779Z,14.70
2019-05-21T07:02:55.775Z,14.60
2019-05-21T07:03:55.736Z,14.50
2019-05-21T07:04:55.721Z,16.00
2019-05-21T07:05:58.941Z,15.20
2019-05-21T07:06:55.697Z,15.30
2019-05-21T07:07:55.693Z,15.70
2019-05-21T07:08:55.723Z,15.10
2019-05-21T07:09:55.684Z,16.60
2019-05-21T07:10:55.654Z,16.20
2019-05-21T07:11:55.645Z,16.30
2019-05-21T07:12:55.629Z,15.80
2019-05-21T07:13:55.647Z,14.30
2019-05-21T07:14:55.610Z,14.50
2019-05-21T07:15:55.595Z,15.20
2019-05-21T07:16:55.588Z,15.50
2019-05-21T07:17:55.571Z,14.80
2019-05-21T07:18:55.565Z,15.70
2019-05-21T07:19:55.576Z,15.80
2019-05-21T07:20:55.538Z,15.00
2019-05-21T07:22:11.118Z,15.10
2019-05-21T07:22:56.678Z,14.70
2019-05-21T07:23:55.503Z,14.30
2019-05-21T07:24:55.513Z,14.30
2019-05-21T07:25:55.483Z,15.10
2019-05-21T07:26:55.477Z,15.40
2019-05-21T07:27:55.463Z,14.50
2019-05-21T07:28:56.449Z,14.20
2019-05-21T07:29:55.460Z,14.50
2019-05-21T07:30:55.421Z,14.30
2019-05-21T07:31:55.413Z,14.00
2019-05-21T07:32:55.492Z,13.80
2019-05-21T07:33:55.395Z,14.20
2019-05-21T07:34:55.382Z,14.30
2019-05-21T07:35:55.384Z,13.70
2019-05-21T07:36:55.353Z,13.80
2019-05-21T07:37:55.346Z,13.80
2019-05-21T07:38:55.345Z,13.20
2019-05-21T07:39:55.361Z,14.80
2019-05-21T07:40:55.304Z,14.60
2019-05-21T07:41:55.328Z,14.40
2019-05-21T07:42:55.283Z,15.20
2019-05-21T07:43:55.281Z,15.30
2019-05-21T07:44:55.262Z,15.00
2019-05-21T07:45:55.292Z,16.10
2019-05-21T07:46:55.240Z,16.00
2019-05-21T07:47:55.251Z,15.90
2019-05-21T07:48:55.250Z,16.00
2019-05-21T07:49:55.201Z,15.20
2019-05-21T07:50:55.197Z,14.60
2019-05-21T07:51:55.196Z,14.40
2019-05-21T07:52:55.189Z,14.60
2019-05-21T07:53:55.167Z,14.60
2019-05-21T07:54:55.146Z,15.30
2019-05-21T07:55:55.131Z,15.00
2019-05-21T07:56:55.210Z,15.80
2019-05-21T07:57:55.107Z,15.50
2019-05-21T07:58:55.093Z,15.60
2019-05-21T07:59:55.083Z,15.90
2019-05-21T08:00:55.084Z,15.60
2019-05-21T08:01:55.061Z,15.90
2019-05-21T08:02:55.083Z,16.00
2019-05-21T08:03:55.129Z,16.10
2019-05-21T08:04:55.073Z,16.20
2019-05-21T08:05:55.010Z,16.30
2019-05-21T08:06:55.003Z,16.50
2019-05-21T08:07:55.010Z,16.50
2019-05-21T08:09:11.685Z,15.40
2019-05-21T08:09:55.987Z,14.90
2019-05-21T08:10:54.959Z,15.10
2019-05-21T08:11:54.970Z,14.80
2019-05-21T08:12:54.940Z,15.20
2019-05-21T08:13:54.922Z,15.90
2019-05-21T08:14:54.908Z,15.60
2019-05-21T08:15:54.901Z,16.50
2019-05-21T08:16:54.918Z,15.60
2019-05-21T08:17:54.873Z,15.90
2019-05-21T08:18:54.866Z,16.40
2019-05-21T08:19:54.853Z,14.80
2019-05-21T08:20:54.837Z,15.00
2019-05-21T08:21:54.833Z,16.50
2019-05-21T08:22:54.856Z,16.20
2019-05-21T08:23:54.805Z,15.30
2019-05-21T08:24:54.802Z,15.50
2019-05-21T08:25:54.782Z,15.10
2019-05-21T08:26:54.793Z,15.30
2019-05-21T08:27:54.760Z,15.30
2019-05-21T08:28:54.755Z,15.30
2019-05-21T08:29:54.738Z,15.30
2019-05-21T08:30:54.729Z,15.00
2019-05-21T08:31:54.736Z,14.60
2019-05-21T08:32:54.704Z,14.30
2019-05-21T08:33:54.697Z,14.50
2019-05-21T08:34:54.680Z,14.70
2019-05-21T08:35:54.665Z,15.50
2019-05-21T08:36:54.674Z,14.80
2019-05-21T08:37:54.644Z,14.80
2019-05-21T08:38:54.632Z,14.40
2019-05-21T08:39:54.634Z,14.00
2019-05-21T08:40:54.617Z,14.90
2019-05-21T08:41:54.631Z,14.10
2019-05-21T08:42:54.590Z,14.70
2019-05-21T08:43:54.574Z,14.30
2019-05-21T08:44:54.564Z,13.40
2019-05-21T08:45:54.572Z,14.20
2019-05-21T08:46:54.550Z,14.50
2019-05-21T08:47:54.551Z,15.00
2019-05-21T08:48:54.518Z,14.40
2019-05-21T08:49:54.506Z,14.10
2019-05-21T08:50:54.494Z,13.90
2019-05-21T08:51:54.499Z,14.20
2019-05-21T08:52:54.501Z,14.50
2019-05-21T08:53:54.467Z,13.20
2019-05-21T08:54:56.487Z,13.90
2019-05-21T08:55:54.440Z,14.90
2019-05-21T08:56:54.433Z,14.50
2019-05-21T08:58:06.398Z,13.90
2019-05-21T08:58:55.405Z,14.10
2019-05-21T08:59:54.395Z,13.70
2019-05-21T09:00:54.431Z,14.10
2019-05-21T09:01:58.742Z,14.20
2019-05-21T09:02:54.382Z,14.20
2019-05-21T09:03:54.345Z,13.80
2019-05-21T09:04:54.334Z,14.30
2019-05-21T09:05:54.336Z,13.70
2019-05-21T09:06:54.327Z,13.40
2019-05-21T09:07:54.308Z,13.80
2019-05-21T09:08:54.308Z,12.60
2019-05-21T09:09:54.280Z,13.00
2019-05-21T09:10:54.377Z,13.60
2019-05-21T09:11:54.269Z,12.70
2019-05-21T09:12:54.244Z,12.90
2019-05-21T09:13:54.259Z,13.60
2019-05-21T09:14:54.224Z,13.60
2019-05-21T09:15:54.205Z,13.60
2019-05-21T09:16:54.201Z,13.70
2019-05-21T09:17:54.188Z,13.10
2019-05-21T09:18:54.200Z,13.80
2019-05-21T09:19:54.180Z,13.60
2019-05-21T09:20:54.162Z,13.40
2019-05-21T09:21:54.150Z,13.10
2019-05-21T09:22:54.133Z,13.10
2019-05-21T09:23:54.160Z,13.40
2019-05-21T09:24:54.128Z,12.80
2019-05-21T09:25:54.092Z,12.70
2019-05-21T09:26:54.089Z,12.70
2019-05-21T09:27:54.068Z,13.20
2019-05-21T09:28:54.058Z,12.60
2019-05-21T09:29:54.066Z,12.80
2019-05-21T09:30:54.037Z,12.50
2019-05-21T09:31:54.022Z,11.90
2019-05-21T09:32:54.017Z,11.70
2019-05-21T09:33:54.000Z,11.70
2019-05-21T09:34:54.012Z,11.10
2019-05-21T09:35:53.975Z,10.00
2019-05-21T09:36:53.976Z,10.10
2019-05-21T09:37:53.959Z,10.40
2019-05-21T09:38:53.946Z,10.50
2019-05-21T09:39:53.954Z,9.80
2019-05-21T09:40:53.919Z,10.20
2019-05-21T09:41:53.909Z,9.90
2019-05-21T09:42:53.903Z,10.80
2019-05-21T09:43:53.886Z,10.00
2019-05-21T09:44:53.918Z,10.80
2019-05-21T09:45:53.866Z,10.60
2019-05-21T09:46:53.857Z,10.50
2019-05-21T09:47:53.858Z,9.60
2019-05-21T09:48:56.090Z,10.20
2019-05-21T09:49:53.814Z,11.30
2019-05-21T09:50:53.846Z,10.50
2019-05-21T09:51:53.793Z,11.10
2019-05-21T09:52:53.784Z,11.70
2019-05-21T09:53:53.769Z,11.20
2019-05-21T09:54:53.773Z,12.20
2019-05-21T09:55:53.780Z,12.60
2019-05-21T09:56:53.736Z,13.50
2019-05-21T09:57:53.750Z,14.60
2019-05-21T09:58:53.717Z,14.60
2019-05-21T09:59:53.709Z,14.40
2019-05-21T10:00:53.710Z,14.50
2019-05-21T10:01:53.678Z,15.60
2019-05-21T10:02:53.677Z,15.10
2019-05-21T10:03:53.667Z,15.70
2019-05-21T10:04:53.666Z,16.40
2019-05-21T10:05:53.657Z,15.90
2019-05-21T10:06:53.621Z,16.00
2019-05-21T10:07:53.610Z,16.60
2019-05-21T10:08:53.650Z,15.80
2019-05-21T10:09:53.596Z,15.50
2019-05-21T10:10:53.617Z,15.00
2019-05-21T10:11:53.567Z,15.90
2019-05-21T10:12:53.553Z,16.10
2019-05-21T10:13:53.544Z,16.50
2019-05-21T10:14:53.537Z,17.10
2019-05-21T10:15:53.545Z,16.60
2019-05-21T10:16:53.513Z,17.10
2019-05-21T10:17:53.498Z,17.70
2019-05-21T10:18:53.522Z,18.20
2019-05-21T10:19:53.474Z,18.20
2019-05-21T10:20:53.495Z,18.60
2019-05-21T10:21:56.790Z,18.30
2019-05-21T10:22:53.444Z,19.70
2019-05-21T10:23:53.427Z,19.70
2019-05-21T10:24:53.422Z,19.10
2019-05-21T10:25:53.430Z,18.90
2019-05-21T10:26:53.396Z,19.10
2019-05-21T10:27:53.387Z,19.20
2019-05-21T10:28:53.387Z,19.10
2019-05-21T10:29:53.357Z,18.80
2019-05-21T10:30:53.375Z,19.10
2019-05-21T10:31:53.343Z,19.00
2019-05-21T10:32:53.326Z,19.30
2019-05-21T10:33:53.315Z,20.10
2019-05-21T10:34:53.310Z,19.70
2019-05-21T10:35:53.316Z,20.00
2019-05-21T10:36:53.277Z,19.60
2019-05-21T10:37:55.274Z,18.00
2019-05-21T10:38:53.253Z,18.80
2019-05-21T10:39:53.249Z,17.90
2019-05-21T10:40:53.259Z,19.00
2019-05-21T10:41:53.220Z,19.50
2019-05-21T10:42:53.209Z,19.90
2019-05-21T10:43:53.201Z,19.60
2019-05-21T10:44:53.188Z,19.40
2019-05-21T10:45:53.197Z,18.10
2019-05-21T10:46:53.164Z,19.10
2019-05-21T10:47:53.158Z,18.40
2019-05-21T10:48:53.141Z,17.80
2019-05-21T10:49:53.135Z,17.10
2019-05-21T10:50:53.145Z,16.90
2019-05-21T10:51:53.111Z,17.20
2019-05-21T10:52:53.101Z,17.50
2019-05-21T10:53:53.083Z,18.00
2019-05-21T10:54:53.078Z,17.80
2019-05-21T10:55:53.078Z,17.50
2019-05-21T10:56:53.051Z,18.30
2019-05-21T10:57:53.040Z,18.00
2019-05-21T10:58:53.025Z,16.90
2019-05-21T10:59:53.015Z,17.10
2019-05-21T11:00:53.022Z,17.50
2019-05-21T11:01:52.992Z,17.50
2019-05-21T11:02:52.978Z,16.50
2019-05-21T11:03:52.971Z,15.90
2019-05-21T11:04:52.960Z,17.00
2019-05-21T11:06:09.068Z,16.30
2019-05-21T11:06:53.935Z,15.60
2019-05-21T11:07:52.921Z,15.90
2019-05-21T11:08:52.906Z,16.70
2019-05-21T11:09:52.894Z,16.00
2019-05-21T11:10:52.914Z,15.50
2019-05-21T11:11:52.894Z,15.30
2019-05-21T11:12:52.870Z,16.00
2019-05-21T11:13:52.864Z,16.10
2019-05-21T11:14:52.842Z,15.50
2019-05-21T11:15:52.868Z,15.20
2019-05-21T11:16:52.822Z,14.70
2019-05-21T11:18:09.023Z,15.60
2019-05-21T11:18:53.794Z,14.60
2019-05-21T11:19:52.834Z,14.40
2019-05-21T11:20:52.801Z,14.90
2019-05-21T11:21:52.792Z,15.30
2019-05-21T11:22:52.750Z,15.10
2019-05-21T11:23:52.795Z,15.00
2019-05-21T11:24:52.725Z,15.20
2019-05-21T11:25:52.722Z,15.60
2019-05-21T11:26:52.733Z,15.60
2019-05-21T11:27:52.692Z,15.10
2019-05-21T11:28:52.681Z,15.60
2019-05-21T11:29:52.699Z,14.90
2019-05-21T11:30:52.698Z,15.80
2019-05-21T11:31:56.896Z,15.60
2019-05-21T11:32:52.631Z,15.10
2019-05-21T11:33:52.629Z,15.80
2019-05-21T11:34:52.613Z,15.40
2019-05-21T11:35:52.601Z,15.50
2019-05-21T11:36:52.595Z,15.60
2019-05-21T11:37:52.605Z,16.10
2019-05-21T11:38:52.565Z,16.40
2019-05-21T11:39:52.552Z,15.40
2019-05-21T11:40:52.547Z,15.50
2019-05-21T11:41:52.529Z,15.20
2019-05-21T11:42:53.277Z,15.30
2019-05-21T11:43:52.514Z,14.50
2019-05-21T11:44:52.497Z,14.90
2019-05-21T11:45:52.499Z,15.40
2019-05-21T11:46:52.474Z,14.60
2019-05-21T11:47:54.595Z,14.40
2019-05-21T11:48:52.454Z,14.40
2019-05-21T11:49:52.518Z,14.90
2019-05-21T11:50:52.436Z,14.20
2019-05-21T11:51:52.430Z,13.80
2019-05-21T11:52:52.448Z,14.50
2019-05-21T11:53:52.395Z,14.40
2019-05-21T11:54:55.785Z,13.70
2019-05-21T11:55:52.374Z,14.40
2019-05-21T11:56:52.359Z,14.20
2019-05-21T11:57:52.388Z,15.00
2019-05-21T11:58:52.335Z,14.50
2019-05-21T11:59:52.328Z,15.70
2019-05-21T12:00:52.325Z,15.90
2019-05-21T12:01:52.301Z,15.60
2019-05-21T12:02:52.294Z,15.60
2019-05-21T12:03:52.312Z,16.40
2019-05-21T12:04:52.298Z,16.20
2019-05-21T12:05:52.258Z,16.60
2019-05-21T12:06:52.265Z,16.90
2019-05-21T12:07:52.236Z,16.90
2019-05-21T12:08:56.774Z,17.00
2019-05-21T12:09:53.207Z,17.40
2019-05-21T12:10:52.224Z,16.90
2019-05-21T12:11:52.208Z,17.10
2019-05-21T12:12:52.173Z,17.80
2019-05-21T12:13:52.194Z,18.50
2019-05-21T12:14:52.158Z,18.10
2019-05-21T12:15:52.153Z,17.70
2019-05-21T12:16:52.128Z,18.20
2019-05-21T12:17:52.122Z,18.00
2019-05-21T12:18:52.131Z,18.30
2019-05-21T12:19:52.099Z,17.30
2019-05-21T12:20:52.087Z,17.60
2019-05-21T12:21:52.079Z,18.00
2019-05-21T12:22:52.093Z,18.40
2019-05-21T12:23:52.074Z,17.70
2019-05-21T12:24:52.037Z,19.00
2019-05-21T12:25:52.037Z,18.50
2019-05-21T12:26:52.026Z,18.10
2019-05-21T12:27:52.024Z,18.90
2019-05-21T12:28:52.012Z,18.50
2019-05-21T12:29:52.000Z,17.70
2019-05-21T12:30:51.975Z,18.60
2019-05-21T12:31:51.982Z,18.60
2019-05-21T12:32:51.946Z,18.90
2019-05-21T12:33:51.957Z,18.50
2019-05-21T12:34:51.941Z,17.30
2019-05-21T12:35:51.918Z,16.90
2019-05-21T12:36:51.913Z,16.20
2019-05-21T12:37:51.903Z,16.70
2019-05-21T12:38:51.898Z,18.00
2019-05-21T12:39:51.866Z,17.10
2019-05-21T12:40:51.856Z,17.90
2019-05-21T12:41:51.856Z,17.10
2019-05-21T12:42:51.837Z,17.60
2019-05-21T12:43:51.848Z,18.30
2019-05-21T12:44:51.817Z,17.30
2019-05-21T12:45:51.805Z,17.20
2019-05-21T12:46:51.788Z,17.80
2019-05-21T12:47:51.775Z,17.40
2019-05-21T12:48:51.769Z,18.20
2019-05-21T12:49:51.789Z,18.20
2019-05-21T12:50:51.764Z,18.40
2019-05-21T12:51:51.733Z,17.20